Terminal Aerodrome Forecast
Issued by NWS Knoxville/Tri Cities, TN

Home | Current Version | Previous Version | Text Only | Print | Product List | Glossary On
Versions: 1 2 3 4 5 6 7 8 9 10 11 12 13 14 15 16 17 18 19 20 21 22 23 24 25 26 27 28
000
FTUS44 KMRX 311011 AAA
TAFTRI
TAF AMD
KTRI 311011Z 3110/0106 00000KT 6SM BR SCT050 OVC090
      TEMPO 3110/3112 4SM -RA BR BKN050
     FM311400 VRB03KT P6SM SCT050 BKN100
     FM010400 00000KT 5SM BR SCT030 BKN150=

USA.gov is the U.S. government's official web portal to all federal, state and local government web resources and services.